sensor_id;sensor_type;location;lat;lon;timestamp;temperature;humidity
30973;DHT22;25423;45.624;13.790;2022-08-11T00:00:20;24.40;99.90
30973;DHT22;25423;45.624;13.790;2022-08-11T00:02:47;24.40;99.90
30973;DHT22;25423;45.624;13.790;2022-08-11T00:05:15;24.40;99.90
30973;DHT22;25423;45.624;13.790;2022-08-11T00:10:11;24.30;99.90
30973;DHT22;25423;45.624;13.790;2022-08-11T00:12:36;24.30;99.90
30973;DHT22;25423;45.624;13.790;2022-08-11T00:15:02;24.30;99.90
30973;DHT22;25423;45.624;13.790;2022-08-11T00:17:31;24.30;99.90
30973;DHT22;25423;45.624;13.790;2022-08-11T00:20:07;24.20;99.90
30973;DHT22;25423;45.624;13.790;2022-08-11T00:22:34;24.20;99.90
30973;DHT22;25423;45.624;13.790;2022-08-11T00:25:14;24.20;99.90
30973;DHT22;25423;45.624;13.790;2022-08-11T00:27:40;24.20;99.90
30973;DHT22;25423;45.624;13.790;2022-08-11T00:30:06;24.30;99.90
30973;DHT22;25423;45.624;13.790;2022-08-11T00:32:34;24.20;99.90
30973;DHT22;25423;45.624;13.790;2022-08-11T00:35:01;24.30;99.90
30973;DHT22;25423;45.624;13.790;2022-08-11T00:37:28;24.30;99.90
30973;DHT22;25423;45.624;13.790;2022-08-11T00:39:54;24.20;99.90
30973;DHT22;25423;45.624;13.790;2022-08-11T01:13:17;24.20;99.90
30973;DHT22;25423;45.624;13.790;2022-08-11T01:47:48;24.00;99.90
30973;DHT22;25423;45.624;13.790;2022-08-11T01:50:23;23.90;99.90
30973;DHT22;25423;45.624;13.790;2022-08-11T01:55:33;23.90;99.90
30973;DHT22;25423;45.624;13.790;2022-08-11T02:00:32;23.70;99.90
30973;DHT22;25423;45.624;13.790;2022-08-11T02:03:03;23.80;99.90
30973;DHT22;25423;45.624;13.790;2022-08-11T02:10:55;23.70;99.90
30973;DHT22;25423;45.624;13.790;2022-08-11T02:18:39;23.60;99.90
30973;DHT22;25423;45.624;13.790;2022-08-11T02:21:37;23.60;99.90
30973;DHT22;25423;45.624;13.790;2022-08-11T02:24:27;23.50;99.90
30973;DHT22;25423;45.624;13.790;2022-08-11T02:26:59;23.50;99.90
30973;DHT22;25423;45.624;13.790;2022-08-11T02:29:37;23.50;99.90
30973;DHT22;25423;45.624;13.790;2022-08-11T02:45:04;23.30;99.90
30973;DHT22;25423;45.624;13.790;2022-08-11T02:47:46;23.30;99.90
30973;DHT22;25423;45.624;13.790;2022-08-11T02:50:34;23.30;99.90
30973;DHT22;25423;45.624;13.790;2022-08-11T02:53:12;23.40;99.90
30973;DHT22;25423;45.624;13.790;2022-08-11T02:59:13;23.40;99.90
30973;DHT22;25423;45.624;13.790;2022-08-11T03:04:21;23.40;99.90
30973;DHT22;25423;45.624;13.790;2022-08-11T03:06:51;23.40;99.90
30973;DHT22;25423;45.624;13.790;2022-08-11T03:11:59;23.40;99.90
30973;DHT22;25423;45.624;13.790;2022-08-11T03:14:48;23.40;99.90
30973;DHT22;25423;45.624;13.790;2022-08-11T03:22:54;23.50;99.90
30973;DHT22;25423;45.624;13.790;2022-08-11T03:25:29;23.60;99.90
30973;DHT22;25423;45.624;13.790;2022-08-11T03:28:09;23.60;99.90
30973;DHT22;25423;45.624;13.790;2022-08-11T03:30:41;23.60;99.90
30973;DHT22;25423;45.624;13.790;2022-08-11T03:38:25;23.70;99.90
30973;DHT22;25423;45.624;13.790;2022-08-11T03:51:55;23.60;99.90
30973;DHT22;25423;45.624;13.790;2022-08-11T04:10:10;23.70;99.90
30973;DHT22;25423;45.624;13.790;2022-08-11T04:23:47;23.60;99.90
30973;DHT22;25423;45.624;13.790;2022-08-11T04:26:29;23.60;99.90
30973;DHT22;25423;45.624;13.790;2022-08-11T04:39:42;23.60;99.90
30973;DHT22;25423;45.624;13.790;2022-08-11T04:53:59;23.60;99.90
30973;DHT22;25423;45.624;13.790;2022-08-11T04:56:46;23.70;99.90
30973;DHT22;25423;45.624;13.790;2022-08-11T05:10:33;23.80;99.90
30973;DHT22;25423;45.624;13.790;2022-08-11T05:13:07;23.80;99.90
30973;DHT22;25423;45.624;13.790;2022-08-11T05:15:53;23.90;99.90
30973;DHT22;25423;45.624;13.790;2022-08-11T05:18:50;24.00;99.90
30973;DHT22;25423;45.624;13.790;2022-08-11T05:21:35;24.00;99.90
30973;DHT22;25423;45.624;13.790;2022-08-11T05:24:21;24.10;99.90
30973;DHT22;25423;45.624;13.790;2022-08-11T05:27:09;24.00;99.90
30973;DHT22;25423;45.624;13.790;2022-08-11T05:32:39;24.20;99.90
30973;DHT22;25423;45.624;13.790;2022-08-11T05:35:31;24.30;99.90
30973;DHT22;25423;45.624;13.790;2022-08-11T05:37:59;24.30;99.90
30973;DHT22;25423;45.624;13.790;2022-08-11T05:40:47;24.40;99.90
30973;DHT22;25423;45.624;13.790;2022-08-11T05:43:32;24.40;99.90
30973;DHT22;25423;45.624;13.790;2022-08-11T05:46:17;24.40;99.90
30973;DHT22;25423;45.624;13.790;2022-08-11T05:49:02;24.40;99.90
30973;DHT22;25423;45.624;13.790;2022-08-11T05:51:51;24.40;99.90
30973;DHT22;25423;45.624;13.790;2022-08-11T05:54:35;24.50;99.90
30973;DHT22;25423;45.624;13.790;2022-08-11T05:57:20;24.40;99.90
30973;DHT22;25423;45.624;13.790;2022-08-11T05:59:47;24.40;99.90
30973;DHT22;25423;45.624;13.790;2022-08-11T06:02:12;24.50;99.90
30973;DHT22;25423;45.624;13.790;2022-08-11T06:04:38;24.60;99.90
30973;DHT22;25423;45.624;13.790;2022-08-11T06:07:06;24.60;99.90
30973;DHT22;25423;45.624;13.790;2022-08-11T06:09:46;24.70;99.90
30973;DHT22;25423;45.624;13.790;2022-08-11T06:14:41;25.00;99.90
30973;DHT22;25423;45.624;13.790;2022-08-11T06:17:07;25.00;99.90
30973;DHT22;25423;45.624;13.790;2022-08-11T06:19:41;24.90;99.90
30973;DHT22;25423;45.624;13.790;2022-08-11T06:22:11;24.90;99.90
30973;DHT22;25423;45.624;13.790;2022-08-11T06:24:40;24.90;99.90
30973;DHT22;25423;45.624;13.790;2022-08-11T06:27:07;25.00;99.90
30973;DHT22;25423;45.624;13.790;2022-08-11T06:29:35;25.20;99.90
30973;DHT22;25423;45.624;13.790;2022-08-11T06:32:04;25.30;99.90
30973;DHT22;25423;45.624;13.790;2022-08-11T06:37:13;25.30;99.90
30973;DHT22;25423;45.624;13.790;2022-08-11T06:39:51;25.30;99.90
30973;DHT22;25423;45.624;13.790;2022-08-11T06:42:40;25.50;99.90
30973;DHT22;25423;45.624;13.790;2022-08-11T06:47:34;25.40;99.90
30973;DHT22;25423;45.624;13.790;2022-08-11T06:50:00;25.60;99.90
30973;DHT22;25423;45.624;13.790;2022-08-11T06:52:45;25.80;99.90
30973;DHT22;25423;45.624;13.790;2022-08-11T06:55:24;25.70;99.90
30973;DHT22;25423;45.624;13.790;2022-08-11T06:58:13;25.80;99.90
30973;DHT22;25423;45.624;13.790;2022-08-11T07:00:59;25.70;99.90
30973;DHT22;25423;45.624;13.790;2022-08-11T07:03:26;25.80;99.90
30973;DHT22;25423;45.624;13.790;2022-08-11T07:05:54;25.80;99.90
30973;DHT22;25423;45.624;13.790;2022-08-11T07:14:19;26.10;99.90
30973;DHT22;25423;45.624;13.790;2022-08-11T07:17:03;26.20;99.90
30973;DHT22;25423;45.624;13.790;2022-08-11T07:19:31;26.20;99.90
30973;DHT22;25423;45.624;13.790;2022-08-11T07:22:15;26.10;99.90
30973;DHT22;25423;45.624;13.790;2022-08-11T07:25:05;26.10;99.90
30973;DHT22;25423;45.624;13.790;2022-08-11T07:28:25;26.20;99.90
30973;DHT22;25423;45.624;13.790;2022-08-11T07:31:03;26.20;99.90
30973;DHT22;25423;45.624;13.790;2022-08-11T07:33:54;26.40;99.90
30973;DHT22;25423;45.624;13.790;2022-08-11T07:36:16;26.60;99.90
30973;DHT22;25423;45.624;13.790;2022-08-11T07:38:49;26.60;99.40
30973;DHT22;25423;45.624;13.790;2022-08-11T07:41:16;26.60;99.40
30973;DHT22;25423;45.624;13.790;2022-08-11T07:43:43;26.60;99.30
30973;DHT22;25423;45.624;13.790;2022-08-11T07:46:09;26.60;99.10
30973;DHT22;25423;45.624;13.790;2022-08-11T07:48:54;26.60;99.20
30973;DHT22;25423;45.624;13.790;2022-08-11T07:51:39;26.80;99.40
30973;DHT22;25423;45.624;13.790;2022-08-11T07:54:24;26.80;99.20
30973;DHT22;25423;45.624;13.790;2022-08-11T07:56:50;26.90;99.00
30973;DHT22;25423;45.624;13.790;2022-08-11T07:59:17;26.90;98.70
30973;DHT22;25423;45.624;13.790;2022-08-11T08:02:01;27.10;98.90
30973;DHT22;25423;45.624;13.790;2022-08-11T08:04:46;27.20;98.70
30973;DHT22;25423;45.624;13.790;2022-08-11T08:07:30;27.40;98.10
30973;DHT22;25423;45.624;13.790;2022-08-11T08:10:16;27.50;98.00
30973;DHT22;25423;45.624;13.790;2022-08-11T08:13:00;27.60;97.60
30973;DHT22;25423;45.624;13.790;2022-08-11T08:15:45;27.60;97.80
30973;DHT22;25423;45.624;13.790;2022-08-11T08:18:33;27.70;97.30
30973;DHT22;25423;45.624;13.790;2022-08-11T08:20:59;27.60;96.70
30973;DHT22;25423;45.624;13.790;2022-08-11T08:23:37;27.60;97.30
30973;DHT22;25423;45.624;13.790;2022-08-11T08:26:05;27.80;97.30
30973;DHT22;25423;45.624;13.790;2022-08-11T08:28:52;27.90;97.30
30973;DHT22;25423;45.624;13.790;2022-08-11T08:31:18;28.00;96.60
30973;DHT22;25423;45.624;13.790;2022-08-11T08:33:43;27.90;97.00
30973;DHT22;25423;45.624;13.790;2022-08-11T08:36:09;27.90;97.00
30973;DHT22;25423;45.624;13.790;2022-08-11T08:38:56;28.10;96.90
30973;DHT22;25423;45.624;13.790;2022-08-11T08:41:22;28.10;96.00
30973;DHT22;25423;45.624;13.790;2022-08-11T08:43:50;28.20;95.90
30973;DHT22;25423;45.624;13.790;2022-08-11T08:46:17;28.30;96.10
30973;DHT22;25423;45.624;13.790;2022-08-11T08:48:43;28.40;96.00
30973;DHT22;25423;45.624;13.790;2022-08-11T08:51:11;28.50;95.40
30973;DHT22;25423;45.624;13.790;2022-08-11T08:53:57;28.40;95.10
30973;DHT22;25423;45.624;13.790;2022-08-11T08:56:27;28.30;95.60
30973;DHT22;25423;45.624;13.790;2022-08-11T08:58:52;28.40;95.50
30973;DHT22;25423;45.624;13.790;2022-08-11T09:01:18;28.60;95.30
30973;DHT22;25423;45.624;13.790;2022-08-11T09:03:45;28.60;94.70
30973;DHT22;25423;45.624;13.790;2022-08-11T09:06:12;28.60;95.00
30973;DHT22;25423;45.624;13.790;2022-08-11T09:08:40;28.60;95.00
30973;DHT22;25423;45.624;13.790;2022-08-11T09:11:06;28.80;93.90
30973;DHT22;25423;45.624;13.790;2022-08-11T09:13:50;28.70;93.90
30973;DHT22;25423;45.624;13.790;2022-08-11T09:16:16;28.70;94.10
30973;DHT22;25423;45.624;13.790;2022-08-11T09:18:42;28.70;93.00
30973;DHT22;25423;45.624;13.790;2022-08-11T09:21:11;28.60;92.60
30973;DHT22;25423;45.624;13.790;2022-08-11T09:23:39;28.70;92.70
30973;DHT22;25423;45.624;13.790;2022-08-11T09:26:24;28.90;93.50
30973;DHT22;25423;45.624;13.790;2022-08-11T09:29:09;29.10;92.70
30973;DHT22;25423;45.624;13.790;2022-08-11T09:31:35;29.10;93.10
30973;DHT22;25423;45.624;13.790;2022-08-11T09:34:01;29.20;93.10
30973;DHT22;25423;45.624;13.790;2022-08-11T09:36:27;29.30;93.40
30973;DHT22;25423;45.624;13.790;2022-08-11T09:39:11;29.50;92.90
30973;DHT22;25423;45.624;13.790;2022-08-11T09:41:56;29.60;92.20
30973;DHT22;25423;45.624;13.790;2022-08-11T09:44:22;29.40;92.80
30973;DHT22;25423;45.624;13.790;2022-08-11T09:47:06;29.40;91.70
30973;DHT22;25423;45.624;13.790;2022-08-11T09:49:39;29.50;92.20
30973;DHT22;25423;45.624;13.790;2022-08-11T09:52:06;29.60;91.20
30973;DHT22;25423;45.624;13.790;2022-08-11T09:54:33;29.70;90.90
30973;DHT22;25423;45.624;13.790;2022-08-11T09:56:59;29.70;91.40
30973;DHT22;25423;45.624;13.790;2022-08-11T09:59:43;29.70;91.60
30973;DHT22;25423;45.624;13.790;2022-08-11T10:02:09;29.70;89.20
30973;DHT22;25423;45.624;13.790;2022-08-11T10:04:42;29.60;89.90
30973;DHT22;25423;45.624;13.790;2022-08-11T10:07:09;29.70;89.80
30973;DHT22;25423;45.624;13.790;2022-08-11T10:09:49;29.70;90.00
30973;DHT22;25423;45.624;13.790;2022-08-11T10:12:20;29.80;88.80
30973;DHT22;25423;45.624;13.790;2022-08-11T10:14:52;29.70;87.00
30973;DHT22;25423;45.624;13.790;2022-08-11T10:17:38;29.70;89.60
30973;DHT22;25423;45.624;13.790;2022-08-11T10:20:26;29.80;87.40
30973;DHT22;25423;45.624;13.790;2022-08-11T10:22:53;29.80;86.60
30973;DHT22;25423;45.624;13.790;2022-08-11T10:25:37;29.70;86.90
30973;DHT22;25423;45.624;13.790;2022-08-11T10:28:22;29.90;86.80
30973;DHT22;25423;45.624;13.790;2022-08-11T10:30:48;30.00;89.80
30973;DHT22;25423;45.624;13.790;2022-08-11T10:33:34;30.00;85.70
30973;DHT22;25423;45.624;13.790;2022-08-11T10:36:18;30.10;85.20
30973;DHT22;25423;45.624;13.790;2022-08-11T10:38:44;30.10;84.30
30973;DHT22;25423;45.624;13.790;2022-08-11T10:41:11;30.10;88.60
30973;DHT22;25423;45.624;13.790;2022-08-11T10:43:56;30.20;87.60
30973;DHT22;25423;45.624;13.790;2022-08-11T10:46:22;30.30;86.10
30973;DHT22;25423;45.624;13.790;2022-08-11T10:49:06;30.40;87.00
30973;DHT22;25423;45.624;13.790;2022-08-11T10:51:32;30.40;84.20
30973;DHT22;25423;45.624;13.790;2022-08-11T10:54:16;30.40;85.70
30973;DHT22;25423;45.624;13.790;2022-08-11T10:57:01;30.40;85.10
30973;DHT22;25423;45.624;13.790;2022-08-11T10:59:45;30.30;84.20
30973;DHT22;25423;45.624;13.790;2022-08-11T11:02:12;30.10;84.10
30973;DHT22;25423;45.624;13.790;2022-08-11T11:04:58;30.20;83.80
30973;DHT22;25423;45.624;13.790;2022-08-11T11:07:37;30.10;84.00
30973;DHT22;25423;45.624;13.790;2022-08-11T11:10:05;30.00;82.40
30973;DHT22;25423;45.624;13.790;2022-08-11T11:15:19;29.90;81.70
30973;DHT22;25423;45.624;13.790;2022-08-11T11:20:41;30.10;82.30
30973;DHT22;25423;45.624;13.790;2022-08-11T11:23:15;30.20;81.30
30973;DHT22;25423;45.624;13.790;2022-08-11T11:28:46;30.40;81.00
30973;DHT22;25423;45.624;13.790;2022-08-11T11:36:24;30.00;84.70
30973;DHT22;25423;45.624;13.790;2022-08-11T11:38:53;30.00;86.10
30973;DHT22;25423;45.624;13.790;2022-08-11T11:41:21;30.10;84.90
30973;DHT22;25423;45.624;13.790;2022-08-11T11:43:50;30.40;84.70
30973;DHT22;25423;45.624;13.790;2022-08-11T11:46:16;30.70;84.40
30973;DHT22;25423;45.624;13.790;2022-08-11T11:48:42;30.90;84.70
30973;DHT22;25423;45.624;13.790;2022-08-11T11:51:08;31.00;85.20
30973;DHT22;25423;45.624;13.790;2022-08-11T11:53:34;31.10;85.10
30973;DHT22;25423;45.624;13.790;2022-08-11T11:56:00;31.30;85.20
30973;DHT22;25423;45.624;13.790;2022-08-11T11:58:27;31.20;85.00
30973;DHT22;25423;45.624;13.790;2022-08-11T12:01:12;31.10;85.70
30973;DHT22;25423;45.624;13.790;2022-08-11T12:03:42;31.00;85.50
30973;DHT22;25423;45.624;13.790;2022-08-11T12:06:08;31.10;84.30
30973;DHT22;25423;45.624;13.790;2022-08-11T12:08:38;31.10;83.50
30973;DHT22;25423;45.624;13.790;2022-08-11T12:11:10;31.20;84.60
30973;DHT22;25423;45.624;13.790;2022-08-11T12:13:56;31.20;83.40
30973;DHT22;25423;45.624;13.790;2022-08-11T12:16:22;31.00;83.30
30973;DHT22;25423;45.624;13.790;2022-08-11T12:18:49;30.90;83.10
30973;DHT22;25423;45.624;13.790;2022-08-11T12:21:15;31.00;84.90
30973;DHT22;25423;45.624;13.790;2022-08-11T12:23:42;31.20;82.20
30973;DHT22;25423;45.624;13.790;2022-08-11T12:26:28;31.50;82.60
30973;DHT22;25423;45.624;13.790;2022-08-11T12:29:12;31.30;82.90
30973;DHT22;25423;45.624;13.790;2022-08-11T12:31:39;30.90;83.80
30973;DHT22;25423;45.624;13.790;2022-08-11T12:34:08;31.10;85.40
30973;DHT22;25423;45.624;13.790;2022-08-11T12:39:20;31.10;83.80
30973;DHT22;25423;45.624;13.790;2022-08-11T12:42:07;31.30;83.10
30973;DHT22;25423;45.624;13.790;2022-08-11T12:44:52;31.20;84.30
30973;DHT22;25423;45.624;13.790;2022-08-11T12:47:37;30.90;84.30
30973;DHT22;25423;45.624;13.790;2022-08-11T12:50:23;30.90;85.80
30973;DHT22;25423;45.624;13.790;2022-08-11T12:53:08;30.90;84.70
30973;DHT22;25423;45.624;13.790;2022-08-11T12:55:36;30.70;85.10
30973;DHT22;25423;45.624;13.790;2022-08-11T12:58:21;30.80;86.50
30973;DHT22;25423;45.624;13.790;2022-08-11T13:00:49;31.10;84.80
30973;DHT22;25423;45.624;13.790;2022-08-11T13:03:34;31.10;85.10
30973;DHT22;25423;45.624;13.790;2022-08-11T13:06:18;30.90;84.50
30973;DHT22;25423;45.624;13.790;2022-08-11T13:08:47;30.80;84.60
30973;DHT22;25423;45.624;13.790;2022-08-11T13:11:14;30.80;84.40
30973;DHT22;25423;45.624;13.790;2022-08-11T13:13:59;30.90;84.30
30973;DHT22;25423;45.624;13.790;2022-08-11T13:16:27;31.30;84.50
30973;DHT22;25423;45.624;13.790;2022-08-11T13:18:54;31.50;82.80
30973;DHT22;25423;45.624;13.790;2022-08-11T13:21:20;31.40;83.00
30973;DHT22;25423;45.624;13.790;2022-08-11T13:23:51;31.40;82.30
30973;DHT22;25423;45.624;13.790;2022-08-11T13:26:18;31.50;83.10
30973;DHT22;25423;45.624;13.790;2022-08-11T13:28:44;31.80;81.80
30973;DHT22;25423;45.624;13.790;2022-08-11T13:31:10;32.00;80.70
30973;DHT22;25423;45.624;13.790;2022-08-11T13:33:45;32.00;81.90
30973;DHT22;25423;45.624;13.790;2022-08-11T13:36:11;31.60;81.20
30973;DHT22;25423;45.624;13.790;2022-08-11T13:38:40;31.60;82.80
30973;DHT22;25423;45.624;13.790;2022-08-11T13:41:06;31.60;81.70
30973;DHT22;25423;45.624;13.790;2022-08-11T13:43:52;31.90;83.10
30973;DHT22;25423;45.624;13.790;2022-08-11T13:46:19;32.00;81.20
30973;DHT22;25423;45.624;13.790;2022-08-11T13:48:45;32.00;82.40
30973;DHT22;25423;45.624;13.790;2022-08-11T13:51:11;32.10;80.50
30973;DHT22;25423;45.624;13.790;2022-08-11T13:54:00;32.00;78.80
30973;DHT22;25423;45.624;13.790;2022-08-11T13:56:27;32.00;79.80
30973;DHT22;25423;45.624;13.790;2022-08-11T13:58:53;32.20;79.70
30973;DHT22;25423;45.624;13.790;2022-08-11T14:01:19;32.20;78.30
30973;DHT22;25423;45.624;13.790;2022-08-11T14:03:46;31.90;79.00
30973;DHT22;25423;45.624;13.790;2022-08-11T14:06:11;31.80;79.90
30973;DHT22;25423;45.624;13.790;2022-08-11T14:08:38;31.60;78.60
30973;DHT22;25423;45.624;13.790;2022-08-11T14:11:05;31.30;79.70
30973;DHT22;25423;45.624;13.790;2022-08-11T14:13:50;31.20;79.80
30973;DHT22;25423;45.624;13.790;2022-08-11T14:19:12;31.30;80.40
30973;DHT22;25423;45.624;13.790;2022-08-11T14:21:40;31.50;80.20
30973;DHT22;25423;45.624;13.790;2022-08-11T14:24:25;31.80;80.10
30973;DHT22;25423;45.624;13.790;2022-08-11T14:26:51;31.80;78.90
30973;DHT22;25423;45.624;13.790;2022-08-11T14:29:21;31.50;79.30
30973;DHT22;25423;45.624;13.790;2022-08-11T14:31:48;31.30;79.10
30973;DHT22;25423;45.624;13.790;2022-08-11T14:34:16;30.90;78.60
30973;DHT22;25423;45.624;13.790;2022-08-11T14:36:46;30.60;79.60
30973;DHT22;25423;45.624;13.790;2022-08-11T14:39:16;30.80;80.40
30973;DHT22;25423;45.624;13.790;2022-08-11T14:41:43;31.10;80.60
30973;DHT22;25423;45.624;13.790;2022-08-11T14:44:29;31.30;80.40
30973;DHT22;25423;45.624;13.790;2022-08-11T14:47:14;31.40;80.50
30973;DHT22;25423;45.624;13.790;2022-08-11T14:49:40;31.30;80.80
30973;DHT22;25423;45.624;13.790;2022-08-11T14:52:08;31.20;81.60
30973;DHT22;25423;45.624;13.790;2022-08-11T14:54:34;31.10;81.20
30973;DHT22;25423;45.624;13.790;2022-08-11T14:57:19;31.10;80.10
30973;DHT22;25423;45.624;13.790;2022-08-11T14:59:45;31.10;79.40
30973;DHT22;25423;45.624;13.790;2022-08-11T15:02:12;31.00;80.30
30973;DHT22;25423;45.624;13.790;2022-08-11T15:04:57;31.10;81.20
30973;DHT22;25423;45.624;13.790;2022-08-11T15:07:24;31.40;79.50
30973;DHT22;25423;45.624;13.790;2022-08-11T15:09:55;31.60;80.10
30973;DHT22;25423;45.624;13.790;2022-08-11T15:12:21;31.70;80.10
30973;DHT22;25423;45.624;13.790;2022-08-11T15:14:47;31.60;79.70
30973;DHT22;25423;45.624;13.790;2022-08-11T15:17:33;31.50;79.90
30973;DHT22;25423;45.624;13.790;2022-08-11T15:20:04;31.40;79.20
30973;DHT22;25423;45.624;13.790;2022-08-11T15:22:49;31.30;81.10
30973;DHT22;25423;45.624;13.790;2022-08-11T15:25:33;31.10;81.80
30973;DHT22;25423;45.624;13.790;2022-08-11T15:27:59;31.10;81.30
30973;DHT22;25423;45.624;13.790;2022-08-11T15:30:45;31.00;80.80
30973;DHT22;25423;45.624;13.790;2022-08-11T15:33:30;30.90;82.00
30973;DHT22;25423;45.624;13.790;2022-08-11T15:36:14;30.80;82.10
30973;DHT22;25423;45.624;13.790;2022-08-11T15:39:00;30.90;81.50
30973;DHT22;25423;45.624;13.790;2022-08-11T15:41:40;30.90;81.70
30973;DHT22;25423;45.624;13.790;2022-08-11T15:44:30;30.90;82.10
30973;DHT22;25423;45.624;13.790;2022-08-11T15:47:15;30.90;83.30
30973;DHT22;25423;45.624;13.790;2022-08-11T15:49:41;30.90;82.20
30973;DHT22;25423;45.624;13.790;2022-08-11T15:52:09;30.90;82.20
30973;DHT22;25423;45.624;13.790;2022-08-11T15:54:40;30.80;82.40
30973;DHT22;25423;45.624;13.790;2022-08-11T15:57:10;30.70;82.00
30973;DHT22;25423;45.624;13.790;2022-08-11T15:59:57;30.80;82.80
30973;DHT22;25423;45.624;13.790;2022-08-11T16:02:42;30.70;82.80
30973;DHT22;25423;45.624;13.790;2022-08-11T16:05:15;30.70;82.80
30973;DHT22;25423;45.624;13.790;2022-08-11T16:07:42;30.70;83.10
30973;DHT22;25423;45.624;13.790;2022-08-11T16:10:16;30.60;82.90
30973;DHT22;25423;45.624;13.790;2022-08-11T16:15:48;30.70;84.00
30973;DHT22;25423;45.624;13.790;2022-08-11T16:18:35;30.70;82.40
30973;DHT22;25423;45.624;13.790;2022-08-11T16:21:15;30.60;82.20
30973;DHT22;25423;45.624;13.790;2022-08-11T16:23:42;30.50;82.60
30973;DHT22;25423;45.624;13.790;2022-08-11T16:26:08;30.60;82.40
30973;DHT22;25423;45.624;13.790;2022-08-11T16:28:34;30.70;82.80
30973;DHT22;25423;45.624;13.790;2022-08-11T16:31:00;30.80;82.10
30973;DHT22;25423;45.624;13.790;2022-08-11T16:33:26;30.70;82.10
30973;DHT22;25423;45.624;13.790;2022-08-11T16:35:53;30.70;80.90
30973;DHT22;25423;45.624;13.790;2022-08-11T16:38:37;30.60;83.40
30973;DHT22;25423;45.624;13.790;2022-08-11T16:41:07;30.60;78.80
30973;DHT22;25423;45.624;13.790;2022-08-11T16:43:35;30.50;78.80
30973;DHT22;25423;45.624;13.790;2022-08-11T16:46:22;30.60;78.10
30973;DHT22;25423;45.624;13.790;2022-08-11T16:49:12;30.60;78.90
30973;DHT22;25423;45.624;13.790;2022-08-11T16:51:41;30.60;78.50
30973;DHT22;25423;45.624;13.790;2022-08-11T16:54:06;30.60;80.30
30973;DHT22;25423;45.624;13.790;2022-08-11T16:58:59;30.50;79.80
30973;DHT22;25423;45.624;13.790;2022-08-11T17:01:41;30.50;77.30
30973;DHT22;25423;45.624;13.790;2022-08-11T17:04:16;30.50;77.20
30973;DHT22;25423;45.624;13.790;2022-08-11T17:07:02;30.50;76.40
30973;DHT22;25423;45.624;13.790;2022-08-11T17:09:46;30.50;78.40
30973;DHT22;25423;45.624;13.790;2022-08-11T17:12:31;30.50;77.70
30973;DHT22;25423;45.624;13.790;2022-08-11T17:15:17;30.50;77.80
30973;DHT22;25423;45.624;13.790;2022-08-11T17:18:02;30.60;78.20
30973;DHT22;25423;45.624;13.790;2022-08-11T17:20:30;30.70;77.60
30973;DHT22;25423;45.624;13.790;2022-08-11T17:22:56;31.00;78.10
30973;DHT22;25423;45.624;13.790;2022-08-11T17:25:40;31.30;78.00
30973;DHT22;25423;45.624;13.790;2022-08-11T17:28:07;31.30;78.30
30973;DHT22;25423;45.624;13.790;2022-08-11T17:30:34;31.00;79.40
30973;DHT22;25423;45.624;13.790;2022-08-11T17:33:19;30.90;79.80
30973;DHT22;25423;45.624;13.790;2022-08-11T17:36:04;30.90;79.80
30973;DHT22;25423;45.624;13.790;2022-08-11T17:38:30;30.80;80.10
30973;DHT22;25423;45.624;13.790;2022-08-11T17:40:59;30.50;80.60
30973;DHT22;25423;45.624;13.790;2022-08-11T17:43:44;30.20;80.80
30973;DHT22;25423;45.624;13.790;2022-08-11T17:46:28;29.90;81.60
30973;DHT22;25423;45.624;13.790;2022-08-11T17:49:13;29.80;81.30
30973;DHT22;25423;45.624;13.790;2022-08-11T17:51:40;29.70;81.80
30973;DHT22;25423;45.624;13.790;2022-08-11T17:54:25;29.50;82.40
30973;DHT22;25423;45.624;13.790;2022-08-11T17:57:09;29.40;82.80
30973;DHT22;25423;45.624;13.790;2022-08-11T17:59:54;29.30;83.60
30973;DHT22;25423;45.624;13.790;2022-08-11T18:02:27;29.10;83.90
30973;DHT22;25423;45.624;13.790;2022-08-11T18:05:32;29.10;84.30
30973;DHT22;25423;45.624;13.790;2022-08-11T18:07:59;29.10;84.50
30973;DHT22;25423;45.624;13.790;2022-08-11T18:10:44;29.00;85.10
30973;DHT22;25423;45.624;13.790;2022-08-11T18:13:30;28.90;84.70
30973;DHT22;25423;45.624;13.790;2022-08-11T18:16:16;28.70;85.00
30973;DHT22;25423;45.624;13.790;2022-08-11T18:19:00;28.60;85.30
30973;DHT22;25423;45.624;13.790;2022-08-11T18:21:45;28.50;84.80
30973;DHT22;25423;45.624;13.790;2022-08-11T18:24:30;28.60;84.90
30973;DHT22;25423;45.624;13.790;2022-08-11T18:27:16;28.70;85.30
30973;DHT22;25423;45.624;13.790;2022-08-11T18:30:02;28.60;85.10
30973;DHT22;25423;45.624;13.790;2022-08-11T18:32:47;28.50;85.60
30973;DHT22;25423;45.624;13.790;2022-08-11T18:35:32;28.50;85.80
30973;DHT22;25423;45.624;13.790;2022-08-11T18:38:17;28.50;86.30
30973;DHT22;25423;45.624;13.790;2022-08-11T18:41:03;28.40;86.70
30973;DHT22;25423;45.624;13.790;2022-08-11T18:43:49;28.40;86.60
30973;DHT22;25423;45.624;13.790;2022-08-11T18:46:35;28.30;87.10
30973;DHT22;25423;45.624;13.790;2022-08-11T18:49:24;28.30;87.20
30973;DHT22;25423;45.624;13.790;2022-08-11T18:52:08;28.20;87.50
30973;DHT22;25423;45.624;13.790;2022-08-11T18:54:54;28.20;87.60
30973;DHT22;25423;45.624;13.790;2022-08-11T18:57:39;28.10;87.80
30973;DHT22;25423;45.624;13.790;2022-08-11T19:00:24;28.10;87.80
30973;DHT22;25423;45.624;13.790;2022-08-11T19:03:10;28.00;88.10
30973;DHT22;25423;45.624;13.790;2022-08-11T19:05:56;28.00;88.30
30973;DHT22;25423;45.624;13.790;2022-08-11T19:08:41;28.00;88.30
30973;DHT22;25423;45.624;13.790;2022-08-11T19:11:29;28.00;88.40
30973;DHT22;25423;45.624;13.790;2022-08-11T19:14:15;27.90;88.70
30973;DHT22;25423;45.624;13.790;2022-08-11T19:17:00;27.90;89.10
30973;DHT22;25423;45.624;13.790;2022-08-11T19:19:45;27.90;89.10
30973;DHT22;25423;45.624;13.790;2022-08-11T19:22:30;27.80;89.10
30973;DHT22;25423;45.624;13.790;2022-08-11T19:25:15;27.80;89.20
30973;DHT22;25423;45.624;13.790;2022-08-11T19:28:00;27.70;89.60
30973;DHT22;25423;45.624;13.790;2022-08-11T19:30:46;27.70;89.60
30973;DHT22;25423;45.624;13.790;2022-08-11T19:33:31;27.70;89.70
30973;DHT22;25423;45.624;13.790;2022-08-11T19:36:15;27.70;90.10
30973;DHT22;25423;45.624;13.790;2022-08-11T19:38:59;27.60;90.00
30973;DHT22;25423;45.624;13.790;2022-08-11T19:41:44;27.60;90.00
30973;DHT22;25423;45.624;13.790;2022-08-11T19:44:28;27.50;90.10
30973;DHT22;25423;45.624;13.790;2022-08-11T19:47:13;27.50;90.40
30973;DHT22;25423;45.624;13.790;2022-08-11T19:49:59;27.40;90.40
30973;DHT22;25423;45.624;13.790;2022-08-11T19:52:43;27.30;90.50